Time;durP1;ratioP1;P1;durP2;ratioP2;P2;SDS_P1;SDS_P2;PMS_P1;PMS_P2;Temp;Humidity;BMP_temperature;BMP_pressure;BME280_temperature;BME280_humidity;BME280_pressure;Samples;Min_cycle;Max_cycle;Signal;HPM_P1;HPM_P2
2023/03/15 13:06:26;;;;;;;;;;;21.30;51.50;;;;;;4767794;54;20091;-30
2023/03/15 13:16:34;;;;;;;;;;;21.30;51.10;;;;;;4899183;54;20360;-28
2023/03/15 13:21:37;;;;;;;;;;;21.30;51.50;;;;;;4874208;54;20298;-30
2023/03/15 13:26:55;;;;;;;;;;;21.40;52.20;;;;;;4808010;58;20071;-28
2023/03/15 13:32:10;;;;;;;;;;;21.40;52.60;;;;;;4890088;54;20195;-30
2023/03/15 13:37:21;;;;;;;;;;;21.40;52.80;;;;;;4807305;58;20115;-30
2023/03/15 13:42:23;;;;;;;;;;;21.50;53.30;;;;;;4831104;54;20107;-28
2023/03/15 13:47:25;;;;;;;;;;;21.50;53.50;;;;;;4930862;54;20115;-29
2023/03/15 13:52:25;;;;;;;;;;;21.50;53.50;;;;;;4875082;54;20298;-31
2023/03/15 13:57:26;;;;;;;;;;;21.50;53.80;;;;;;4828862;54;20108;-30
2023/03/15 14:05:58;;;;;;;;;;;21.50;54.10;;;;;;4773437;55;20302;-32
2023/03/15 14:11:43;;;;;;;;;;;21.60;54.30;;;;;;4753650;58;20339;-30
2023/03/15 14:16:45;;;;;;;;;;;21.60;54.50;;;;;;4751976;58;20351;-28
2023/03/15 14:21:50;;;;;;;;;;;21.60;54.70;;;;;;4830555;55;20319;-32
2023/03/15 14:26:55;;;;;;;;;;;21.60;54.70;;;;;;4751332;58;20112;-31
2023/03/15 14:32:01;;;;;;;;;;;21.70;55.00;;;;;;4801075;55;20143;-32
2023/03/15 14:37:04;;;;;;;;;;;21.60;54.50;;;;;;4751529;58;20064;-32
2023/03/15 14:42:05;;;;;;;;;;;21.60;54.40;;;;;;4832255;55;20306;-33
2023/03/15 14:47:15;;;;;;;;;;;21.60;54.20;;;;;;4750872;55;20075;-32
2023/03/15 14:52:15;;;;;;;;;;;21.60;54.10;;;;;;4770912;55;20435;-35
2023/03/15 14:57:16;;;;;;;;;;;21.60;53.90;;;;;;4815455;55;20076;-28
2023/03/15 15:02:17;;;;;;;;;;;21.50;53.80;;;;;;4750488;58;20367;-30
2023/03/15 15:07:19;;;;;;;;;;;21.50;53.70;;;;;;4751160;55;20295;-31
2023/03/15 15:12:20;;;;;;;;;;;21.50;53.90;;;;;;4759684;55;20262;-29
2023/03/15 15:17:20;;;;;;;;;;;21.50;53.80;;;;;;4751746;55;20104;-28
2023/03/15 15:22:21;;;;;;;;;;;21.50;54.00;;;;;;4776276;55;20072;-28
2023/03/15 15:27:21;;;;;;;;;;;21.50;54.40;;;;;;4821450;55;20271;-34
2023/03/15 15:32:22;;;;;;;;;;;21.60;54.10;;;;;;5224490;55;20061;-34
2023/03/15 15:37:23;;;;;;;;;;;21.50;53.90;;;;;;5098640;55;20080;-33
2023/03/15 15:42:23;;;;;;;;;;;21.50;53.80;;;;;;4806434;55;20162;-32
2023/03/15 15:47:24;;;;;;;;;;;21.40;53.70;;;;;;4749939;55;20149;-34
2023/03/15 15:52:25;;;;;;;;;;;21.40;53.70;;;;;;4770757;55;20088;-36
2023/03/15 15:57:25;;;;;;;;;;;21.30;53.60;;;;;;4823244;55;20347;-34
2023/03/15 16:02:26;;;;;;;;;;;21.40;53.50;;;;;;4751357;58;20439;-31
2023/03/15 16:07:27;;;;;;;;;;;21.30;53.50;;;;;;4959806;55;20319;-33
2023/03/15 16:12:28;;;;;;;;;;;21.30;53.30;;;;;;4752111;55;20275;-34
2023/03/15 16:17:29;;;;;;;;;;;21.30;53.30;;;;;;4750731;55;20061;-35
2023/03/15 16:22:30;;;;;;;;;;;21.30;53.20;;;;;;4766980;55;20048;-36
2023/03/15 16:27:31;;;;;;;;;;;21.30;53.10;;;;;;4803571;55;20167;-34
2023/03/15 16:32:33;;;;;;;;;;;21.20;53.00;;;;;;4815297;55;20271;-35
2023/03/15 16:37:33;;;;;;;;;;;21.20;53.00;;;;;;4916162;55;20295;-34
2023/03/15 16:42:34;;;;;;;;;;;21.20;53.00;;;;;;4853861;55;20056;-33
2023/03/15 16:47:35;;;;;;;;;;;21.20;52.90;;;;;;4946037;55;20064;-32
2023/03/15 16:52:35;;;;;;;;;;;21.20;52.90;;;;;;4832860;55;20100;-35
2023/03/15 16:57:37;;;;;;;;;;;21.20;52.80;;;;;;4751245;55;20138;-35
2023/03/15 17:02:38;;;;;;;;;;;21.20;52.70;;;;;;4785563;55;20065;-35
2023/03/15 17:07:39;;;;;;;;;;;21.10;52.70;;;;;;4869686;55;20283;-34
2023/03/15 17:12:41;;;;;;;;;;;21.10;52.60;;;;;;4888857;55;20283;-36
2023/03/15 17:17:42;;;;;;;;;;;21.10;52.50;;;;;;4759470;55;20310;-35
2023/03/15 17:22:43;;;;;;;;;;;21.10;52.40;;;;;;4751378;56;20279;-35
2023/03/15 17:27:45;;;;;;;;;;;21.10;52.40;;;;;;4763380;55;20290;-32
2023/03/15 17:32:45;;;;;;;;;;;21.10;52.30;;;;;;4831747;55;20128;-34
2023/03/15 17:37:46;;;;;;;;;;;21.10;52.30;;;;;;4785523;55;20057;-32
2023/03/15 17:42:48;;;;;;;;;;;21.10;52.30;;;;;;5023152;55;20283;-32
2023/03/15 17:47:49;;;;;;;;;;;21.10;52.30;;;;;;4778306;55;20271;-36
2023/03/15 17:52:53;;;;;;;;;;;21.10;52.20;;;;;;4775542;55;20172;-33
2023/03/15 17:57:54;;;;;;;;;;;21.10;52.20;;;;;;4839655;55;20275;-34
2023/03/15 18:02:54;;;;;;;;;;;21.00;52.10;;;;;;4751157;58;20072;-33
2023/03/15 18:07:56;;;;;;;;;;;21.00;52.10;;;;;;4752160;55;20053;-34
2023/03/15 18:12:57;;;;;;;;;;;21.00;52.00;;;;;;4948511;55;20299;-33
2023/03/15 18:17:57;;;;;;;;;;;21.00;51.90;;;;;;4751860;58;20061;-32
2023/03/15 18:22:58;;;;;;;;;;;21.00;51.90;;;;;;4810936;55;20350;-31
2023/03/15 18:27:59;;;;;;;;;;;21.00;51.80;;;;;;4860974;55;20056;-35
2023/03/15 18:33:00;;;;;;;;;;;21.00;51.90;;;;;;5181213;55;20124;-34
2023/03/15 18:38:00;;;;;;;;;;;21.00;51.80;;;;;;4807177;55;20393;-36
2023/03/15 18:43:02;;;;;;;;;;;21.00;51.70;;;;;;4762153;55;20342;-33
2023/03/15 18:48:04;;;;;;;;;;;21.00;51.70;;;;;;4835060;55;20327;-34
2023/03/15 18:53:04;;;;;;;;;;;21.00;51.70;;;;;;4882112;55;20064;-35
2023/03/15 18:58:11;;;;;;;;;;;21.00;51.90;;;;;;4793805;55;20103;-30
2023/03/15 19:03:12;;;;;;;;;;;21.00;51.70;;;;;;4771273;55;20320;-34
2023/03/15 19:08:13;;;;;;;;;;;21.00;51.60;;;;;;4771161;55;20116;-34
2023/03/15 19:13:13;;;;;;;;;;;21.00;51.60;;;;;;4802383;55;20052;-34
2023/03/15 19:18:14;;;;;;;;;;;21.00;51.60;;;;;;4899073;55;20412;-35
2023/03/15 19:23:15;;;;;;;;;;;21.00;51.60;;;;;;4751163;58;20096;-33
2023/03/15 19:28:16;;;;;;;;;;;20.90;51.60;;;;;;4751879;58;20298;-34
2023/03/15 19:33:16;;;;;;;;;;;21.00;51.60;;;;;;4751799;58;20068;-36
2023/03/15 19:38:17;;;;;;;;;;;20.90;51.50;;;;;;4751938;58;20306;-35
2023/03/15 19:43:18;;;;;;;;;;;20.90;51.40;;;;;;4823611;55;20124;-35
2023/03/15 19:48:20;;;;;;;;;;;20.90;51.40;;;;;;4793422;55;20117;-34
2023/03/15 19:53:20;;;;;;;;;;;20.90;51.40;;;;;;4823714;55;20287;-35
2023/03/15 19:58:21;;;;;;;;;;;20.90;51.50;;;;;;4789261;55;20120;-33
2023/03/15 20:03:22;;;;;;;;;;;20.90;51.40;;;;;;4751514;58;20061;-36
2023/03/15 20:08:25;;;;;;;;;;;20.90;51.50;;;;;;4751904;58;20132;-30
2023/03/15 20:13:26;;;;;;;;;;;20.90;51.30;;;;;;4787342;55;20305;-32
2023/03/15 20:18:27;;;;;;;;;;;20.90;51.50;;;;;;4861754;55;20148;-33
2023/03/15 20:23:27;;;;;;;;;;;20.90;51.50;;;;;;4754614;55;20298;-32
2023/03/15 20:28:28;;;;;;;;;;;20.90;51.30;;;;;;4863928;55;20064;-33
2023/03/15 20:33:30;;;;;;;;;;;20.90;51.50;;;;;;4773141;55;20112;-32
2023/03/15 20:38:33;;;;;;;;;;;20.90;51.60;;;;;;4751803;58;20073;-33
2023/03/15 20:43:34;;;;;;;;;;;20.90;51.20;;;;;;4850685;55;20343;-34
2023/03/15 20:48:34;;;;;;;;;;;20.90;51.30;;;;;;4784418;55;20108;-35
2023/03/15 20:53:35;;;;;;;;;;;20.90;51.30;;;;;;4751929;55;20068;-32
2023/03/15 20:58:36;;;;;;;;;;;20.90;51.30;;;;;;4796584;55;20052;-34
2023/03/15 21:03:37;;;;;;;;;;;20.90;51.10;;;;;;5005507;55;20069;-33
2023/03/15 21:08:38;;;;;;;;;;;20.90;51.10;;;;;;4902651;55;20124;-33
2023/03/15 21:13:38;;;;;;;;;;;20.90;51.10;;;;;;5055408;55;20068;-36
2023/03/15 21:18:46;;;;;;;;;;;20.90;51.10;;;;;;4809109;55;20279;-34
2023/03/15 21:23:47;;;;;;;;;;;20.90;51.10;;;;;;4861097;55;20323;-35
2023/03/15 21:28:49;;;;;;;;;;;20.90;50.90;;;;;;4771592;55;20116;-35
2023/03/15 21:33:50;;;;;;;;;;;20.90;51.00;;;;;;4854042;55;20291;-34
2023/03/15 21:38:51;;;;;;;;;;;20.90;50.80;;;;;;4751936;58;20128;-35
2023/03/15 21:43:51;;;;;;;;;;;20.90;50.80;;;;;;4892620;55;20116;-34
2023/03/15 21:48:52;;;;;;;;;;;20.90;50.80;;;;;;4868902;55;20056;-33
2023/03/15 21:53:53;;;;;;;;;;;20.90;50.80;;;;;;4787081;55;20120;-34
2023/03/15 21:58:54;;;;;;;;;;;20.90;50.60;;;;;;4763903;55;20299;-32
2023/03/15 22:03:54;;;;;;;;;;;20.90;50.70;;;;;;4751380;55;20290;-32
2023/03/15 22:08:55;;;;;;;;;;;20.90;50.70;;;;;;5033295;55;20307;-35
2023/03/15 22:13:56;;;;;;;;;;;20.90;50.60;;;;;;4965732;55;20116;-35
2023/03/15 22:18:56;;;;;;;;;;;20.90;50.50;;;;;;4751803;56;20112;-35
2023/03/15 22:23:57;;;;;;;;;;;20.90;50.50;;;;;;4783246;55;20072;-36
2023/03/15 22:28:58;;;;;;;;;;;20.90;50.30;;;;;;4751879;58;20068;-35
2023/03/15 22:33:58;;;;;;;;;;;20.90;50.40;;;;;;4834211;55;20068;-35
2023/03/15 22:38:59;;;;;;;;;;;20.90;50.30;;;;;;4908639;55;20072;-36
2023/03/15 22:44:00;;;;;;;;;;;20.90;50.30;;;;;;4904420;55;20073;-34
2023/03/15 22:49:01;;;;;;;;;;;20.90;50.20;;;;;;4946123;55;20072;-34
2023/03/15 22:54:02;;;;;;;;;;;20.90;50.20;;;;;;4934520;55;20302;-28
2023/03/15 22:59:03;;;;;;;;;;;20.90;50.20;;;;;;4751156;55;20120;-34
2023/03/15 23:04:03;;;;;;;;;;;20.90;50.50;;;;;;4751419;58;20330;-35
2023/03/15 23:09:04;;;;;;;;;;;20.90;50.20;;;;;;4771932;55;20319;-35
2023/03/15 23:14:05;;;;;;;;;;;20.90;50.00;;;;;;4784298;55;20068;-34
2023/03/15 23:19:05;;;;;;;;;;;20.90;50.00;;;;;;4753318;55;20124;-35
2023/03/15 23:24:06;;;;;;;;;;;20.90;50.00;;;;;;4829746;55;20197;-33
2023/03/15 23:29:09;;;;;;;;;;;20.90;49.90;;;;;;4877535;55;20295;-35
2023/03/15 23:34:10;;;;;;;;;;;20.90;50.00;;;;;;4826100;55;20375;-33
2023/03/15 23:39:11;;;;;;;;;;;20.90;50.00;;;;;;4752125;58;20148;-31
2023/03/15 23:44:11;;;;;;;;;;;20.90;50.00;;;;;;4852002;55;20067;-30
2023/03/15 23:49:12;;;;;;;;;;;20.90;50.00;;;;;;4820339;55;20287;-34
2023/03/15 23:54:13;;;;;;;;;;;20.90;49.80;;;;;;4770820;55;20105;-34
2023/03/15 23:59:13;;;;;;;;;;;20.90;49.70;;;;;;4771550;55;20374;-35
